createdAt,value
2022-08-30T00:01:58.352Z,92.90
2022-08-30T00:04:26.298Z,92.91
2022-08-30T00:06:52.790Z,92.82
2022-08-30T00:09:19.208Z,92.94
2022-08-30T00:11:45.557Z,93.22
2022-08-30T00:14:12.354Z,93.18
2022-08-30T00:16:38.715Z,93.03
2022-08-30T00:19:05.056Z,93.54
2022-08-30T00:21:31.431Z,93.56
2022-08-30T00:23:57.825Z,93.55
2022-08-30T00:26:24.163Z,93.54
2022-08-30T00:28:50.528Z,93.71
2022-08-30T00:31:16.997Z,93.86
2022-08-30T00:33:43.631Z,93.88
2022-08-30T00:36:10.003Z,94.06
2022-08-30T00:38:36.427Z,94.16
2022-08-30T00:41:03.138Z,94.00
2022-08-30T00:43:33.964Z,94.17
2022-08-30T00:46:04.474Z,94.36
2022-08-30T00:48:33.342Z,94.30
2022-08-30T00:51:03.974Z,94.60
2022-08-30T00:53:42.030Z,94.57
2022-08-30T00:56:08.897Z,94.52
2022-08-30T00:58:38.659Z,95.04
2022-08-30T01:01:08.005Z,95.01
2022-08-30T01:03:36.581Z,95.01
2022-08-30T01:06:04.634Z,95.03
2022-08-30T01:08:30.982Z,94.96
2022-08-30T01:10:57.983Z,95.15
2022-08-30T01:13:25.970Z,95.30
2022-08-30T01:15:53.673Z,95.23
2022-08-30T01:18:23.025Z,95.60
2022-08-30T01:21:07.722Z,95.66
2022-08-30T01:23:38.397Z,95.28
2022-08-30T01:26:06.071Z,95.56
2022-08-30T01:28:33.755Z,95.51
2022-08-30T01:31:01.598Z,95.67
2022-08-30T01:33:28.636Z,95.56
2022-08-30T01:35:59.510Z,95.59
2022-08-30T01:38:39.848Z,95.56
2022-08-30T01:41:17.069Z,95.56
2022-08-30T01:43:44.190Z,95.76
2022-08-30T01:46:11.450Z,95.73
2022-08-30T01:48:39.281Z,95.73
2022-08-30T01:51:06.491Z,95.83
2022-08-30T01:53:33.006Z,95.79
2022-08-30T01:55:59.408Z,96.07
2022-08-30T01:58:25.794Z,95.98
2022-08-30T02:00:52.245Z,96.41
2022-08-30T02:03:19.868Z,96.44
2022-08-30T02:05:46.356Z,96.48
2022-08-30T02:08:12.727Z,96.31
2022-08-30T02:10:39.097Z,96.41
2022-08-30T02:13:05.499Z,96.83
2022-08-30T02:15:34.119Z,97.03
2022-08-30T02:18:08.147Z,97.15
2022-08-30T02:20:34.584Z,97.05
2022-08-30T02:23:01.485Z,97.32
2022-08-30T02:25:28.008Z,97.17
2022-08-30T02:27:54.346Z,97.18
2022-08-30T02:30:20.736Z,97.25
2022-08-30T02:32:47.091Z,97.28
2022-08-30T02:35:13.525Z,97.76
2022-08-30T02:37:39.918Z,97.32
2022-08-30T02:40:07.569Z,97.78
2022-08-30T02:42:33.979Z,97.68
2022-08-30T02:45:00.465Z,97.85
2022-08-30T02:47:26.865Z,98.06
2022-08-30T02:49:53.263Z,97.87
2022-08-30T02:52:19.819Z,97.90
2022-08-30T02:54:54.038Z,98.26
2022-08-30T02:57:20.558Z,98.48
2022-08-30T02:59:47.929Z,98.03
2022-08-30T03:02:14.784Z,98.43
2022-08-30T03:04:41.463Z,98.29
2022-08-30T03:07:08.463Z,98.28
2022-08-30T03:09:36.672Z,98.37
2022-08-30T03:12:04.804Z,98.52
2022-08-30T03:14:32.083Z,98.73
2022-08-30T03:16:58.801Z,98.71
2022-08-30T03:19:25.803Z,98.81
2022-08-30T03:21:52.168Z,98.90
2022-08-30T03:24:18.571Z,98.62
2022-08-30T03:26:46.549Z,98.85
2022-08-30T03:29:13.322Z,98.71
2022-08-30T03:31:45.393Z,99.08
2022-08-30T03:34:19.859Z,99.19
2022-08-30T03:36:48.403Z,98.95
2022-08-30T03:39:15.037Z,99.39
2022-08-30T03:41:41.413Z,99.12
2022-08-30T03:44:07.747Z,99.14
2022-08-30T03:46:37.510Z,99.45
2022-08-30T03:49:05.219Z,99.07
2022-08-30T03:51:32.003Z,99.16
2022-08-30T03:53:58.406Z,99.46
2022-08-30T03:56:25.321Z,99.50
2022-08-30T03:58:51.774Z,99.57
2022-08-30T04:01:18.371Z,99.49
2022-08-30T04:03:44.953Z,99.57
2022-08-30T04:06:11.777Z,99.90
2022-08-30T04:08:39.000Z,99.79
2022-08-30T04:11:06.363Z,99.62
2022-08-30T04:13:33.643Z,99.40
2022-08-30T04:16:00.639Z,99.91
2022-08-30T04:18:27.064Z,99.67
2022-08-30T04:20:53.892Z,100.00
2022-08-30T04:23:20.242Z,99.79
2022-08-30T04:25:46.983Z,100.00
2022-08-30T04:28:13.494Z,99.68
2022-08-30T04:30:44.927Z,99.77
2022-08-30T04:33:13.289Z,99.92
2022-08-30T04:35:45.143Z,99.73
2022-08-30T04:38:13.489Z,100.00
2022-08-30T04:40:48.440Z,100.00
2022-08-30T04:43:16.198Z,100.00
2022-08-30T04:45:42.916Z,99.72
2022-08-30T04:48:10.303Z,99.79
2022-08-30T04:50:36.687Z,100.00
2022-08-30T04:53:03.155Z,99.87
2022-08-30T04:55:29.559Z,100.00
2022-08-30T04:57:56.483Z,100.00
2022-08-30T05:00:23.177Z,99.91
2022-08-30T05:02:49.666Z,99.95
2022-08-30T05:05:35.689Z,100.00
2022-08-30T05:08:02.435Z,100.00
2022-08-30T05:10:29.571Z,100.00
2022-08-30T05:12:56.343Z,100.00
2022-08-30T05:15:22.707Z,100.00
2022-08-30T05:17:49.190Z,100.00
2022-08-30T05:20:16.111Z,100.00
2022-08-30T05:22:49.897Z,100.00
2022-08-30T05:25:22.946Z,100.00
2022-08-30T05:27:49.491Z,99.98
2022-08-30T05:30:17.208Z,100.00
2022-08-30T05:32:43.968Z,99.98
2022-08-30T05:35:12.448Z,99.96
2022-08-30T05:37:38.863Z,99.86
2022-08-30T05:40:11.122Z,99.96
2022-08-30T05:42:41.241Z,99.68
2022-08-30T05:45:08.126Z,99.65
2022-08-30T05:47:34.558Z,99.34
2022-08-30T05:50:01.067Z,99.32
2022-08-30T05:52:27.465Z,99.35
2022-08-30T05:55:02.648Z,99.22
2022-08-30T05:57:32.846Z,98.70
2022-08-30T06:00:01.100Z,98.82
2022-08-30T06:02:27.484Z,98.64
2022-08-30T06:04:53.930Z,98.46
2022-08-30T06:07:22.835Z,98.38
2022-08-30T06:09:49.472Z,97.95
2022-08-30T06:12:15.871Z,97.56
2022-08-30T06:14:42.326Z,97.20
2022-08-30T06:17:08.713Z,96.73
2022-08-30T06:19:35.145Z,95.90
2022-08-30T06:22:01.585Z,94.92
2022-08-30T06:24:53.578Z,93.26
2022-08-30T06:27:15.339Z,91.73
2022-08-30T06:29:41.665Z,90.29
2022-08-30T06:32:08.016Z,89.72
2022-08-30T06:34:34.372Z,88.65
2022-08-30T06:37:00.722Z,86.99
2022-08-30T06:39:27.131Z,85.76
2022-08-30T06:41:53.624Z,85.06
2022-08-30T06:44:19.985Z,83.30
2022-08-30T06:46:46.690Z,83.08
2022-08-30T06:49:13.100Z,80.56
2022-08-30T06:51:40.010Z,79.59
2022-08-30T06:54:10.896Z,75.56
2022-08-30T06:56:40.271Z,69.83
2022-08-30T06:59:08.895Z,64.22
2022-08-30T07:01:35.464Z,61.04
2022-08-30T07:04:01.938Z,59.59
2022-08-30T07:06:29.517Z,59.54
2022-08-30T07:08:56.640Z,59.16
2022-08-30T07:11:37.350Z,56.27
2022-08-30T07:14:04.701Z,56.16
2022-08-30T07:16:31.760Z,54.61
2022-08-30T07:18:58.848Z,54.80
2022-08-30T07:21:43.197Z,56.47
2022-08-30T07:24:10.173Z,54.85
2022-08-30T07:26:43.034Z,52.87
2022-08-30T07:29:10.115Z,52.86
2022-08-30T07:31:37.556Z,52.44
2022-08-30T07:34:05.430Z,51.88
2022-08-30T07:36:32.358Z,49.61
2022-08-30T07:38:58.969Z,48.80
2022-08-30T07:41:28.816Z,48.42
2022-08-30T07:43:55.870Z,45.73
2022-08-30T07:46:23.356Z,48.63
2022-08-30T07:48:50.209Z,49.52
2022-08-30T07:51:20.111Z,48.77
2022-08-30T07:53:46.539Z,48.09
2022-08-30T07:56:13.338Z,45.40
2022-08-30T07:58:39.759Z,45.21
2022-08-30T08:01:08.321Z,45.93
2022-08-30T08:03:35.302Z,44.10
2022-08-30T08:06:04.116Z,44.72
2022-08-30T08:08:31.323Z,44.25
2022-08-30T08:10:58.319Z,42.22
2022-08-30T08:13:24.838Z,42.74
2022-08-30T08:15:55.222Z,43.48
2022-08-30T08:18:21.652Z,41.46
2022-08-30T08:20:48.002Z,40.87
2022-08-30T08:23:15.440Z,39.92
2022-08-30T08:25:41.951Z,39.76
2022-08-30T08:28:08.677Z,39.02
2022-08-30T08:30:36.836Z,39.52
2022-08-30T08:33:04.438Z,39.69
2022-08-30T08:35:31.425Z,38.62
2022-08-30T08:37:58.245Z,39.28
2022-08-30T08:40:25.819Z,39.95
2022-08-30T08:43:10.759Z,42.93
2022-08-30T08:46:03.936Z,42.54
2022-08-30T08:48:58.471Z,40.32
2022-08-30T08:51:49.107Z,38.92
2022-08-30T08:54:23.794Z,38.22
2022-08-30T08:56:50.407Z,37.02
2022-08-30T08:59:17.491Z,36.46
2022-08-30T09:01:43.916Z,35.83
2022-08-30T09:04:15.079Z,36.16
2022-08-30T09:07:09.373Z,37.23
2022-08-30T09:09:38.479Z,35.02
2022-08-30T09:12:06.962Z,35.06
2022-08-30T09:14:44.299Z,35.40
2022-08-30T09:17:15.561Z,36.76
2022-08-30T09:19:52.986Z,35.77
2022-08-30T09:22:28.521Z,36.02
2022-08-30T09:25:12.738Z,37.89
2022-08-30T09:27:41.910Z,34.54
2022-08-30T09:30:15.372Z,34.59
2022-08-30T09:32:52.230Z,34.27
2022-08-30T09:35:22.256Z,34.69
2022-08-30T09:38:04.175Z,33.88
2022-08-30T09:40:42.813Z,33.06
2022-08-30T09:43:19.172Z,33.05
2022-08-30T09:46:00.978Z,32.24
2022-08-30T09:48:44.099Z,33.00
2022-08-30T09:51:10.444Z,33.28
2022-08-30T09:54:17.346Z,33.63
2022-08-30T09:56:56.130Z,35.16
2022-08-30T09:59:29.342Z,32.82
2022-08-30T10:02:33.415Z,33.02
2022-08-30T10:05:06.394Z,33.83
2022-08-30T10:07:53.556Z,32.44
2022-08-30T10:11:00.915Z,33.03
2022-08-30T10:13:57.983Z,32.13
2022-08-30T10:16:39.295Z,30.90
2022-08-30T10:19:37.814Z,30.75
2022-08-30T10:22:22.405Z,31.66
2022-08-30T10:25:02.667Z,31.61
2022-08-30T10:27:36.226Z,30.25
2022-08-30T10:30:07.907Z,30.87
2022-08-30T10:32:41.713Z,31.02
2022-08-30T10:35:19.672Z,30.93
2022-08-30T10:38:23.516Z,31.17
2022-08-30T10:41:15.180Z,30.54
2022-08-30T10:43:53.300Z,30.39
2022-08-30T10:47:02.595Z,31.44
2022-08-30T10:49:34.841Z,29.09
2022-08-30T10:52:14.186Z,30.05
2022-08-30T10:54:51.442Z,29.70
2022-08-30T10:57:20.311Z,29.46
2022-08-30T11:00:07.939Z,29.08
2022-08-30T11:02:52.608Z,29.42
2022-08-30T11:05:27.922Z,27.76
2022-08-30T11:08:03.092Z,27.41
2022-08-30T11:10:50.211Z,28.36
2022-08-30T11:13:26.322Z,28.07
2022-08-30T11:15:59.486Z,25.74
2022-08-30T11:18:30.993Z,27.41
2022-08-30T11:21:17.221Z,27.51
2022-08-30T11:23:59.608Z,27.77
2022-08-30T11:26:45.291Z,27.58
2022-08-30T11:29:27.132Z,26.59
2022-08-30T11:31:55.269Z,24.85
2022-08-30T11:34:46.557Z,26.94
2022-08-30T11:37:41.934Z,27.07
2022-08-30T11:40:19.433Z,26.86
2022-08-30T11:42:49.302Z,25.03
2022-08-30T11:45:26.510Z,26.08
2022-08-30T11:48:05.449Z,23.60
2022-08-30T11:50:56.934Z,24.89
2022-08-30T11:53:28.107Z,25.19
2022-08-30T11:56:08.536Z,25.48
2022-08-30T11:59:09.821Z,27.17
2022-08-30T12:01:56.391Z,25.98
2022-08-30T12:04:34.862Z,25.79
2022-08-30T12:07:07.810Z,26.63
2022-08-30T12:09:34.763Z,25.95
2022-08-30T12:12:05.489Z,25.07
2022-08-30T12:14:33.312Z,23.57
2022-08-30T12:17:20.831Z,25.19
2022-08-30T12:19:50.476Z,24.87
2022-08-30T12:22:18.894Z,23.71
2022-08-30T12:24:51.683Z,23.56
2022-08-30T12:27:33.275Z,24.09
2022-08-30T12:30:07.397Z,23.69
2022-08-30T12:32:44.313Z,24.00
2022-08-30T12:35:19.923Z,24.68
2022-08-30T12:37:57.627Z,26.11
2022-08-30T12:40:25.421Z,26.49
2022-08-30T12:42:56.410Z,25.41
2022-08-30T12:45:28.500Z,31.00
2022-08-30T12:48:17.491Z,32.17
2022-08-30T12:50:51.816Z,31.40
2022-08-30T12:53:29.368Z,32.59
2022-08-30T12:55:59.336Z,34.33
2022-08-30T12:58:43.440Z,35.33
2022-08-30T13:01:32.270Z,34.59
2022-08-30T13:03:59.802Z,38.93
2022-08-30T13:06:49.004Z,39.09
2022-08-30T13:09:27.207Z,40.17
2022-08-30T13:11:54.338Z,41.03
2022-08-30T13:14:31.514Z,40.16
2022-08-30T13:17:20.313Z,41.43
2022-08-30T13:20:11.282Z,41.24
2022-08-30T13:22:39.974Z,40.50
2022-08-30T13:25:09.268Z,42.29
2022-08-30T13:27:37.880Z,42.48
2022-08-30T13:30:13.651Z,43.13
2022-08-30T13:32:40.885Z,44.11
2022-08-30T13:35:08.210Z,43.81
2022-08-30T13:37:51.836Z,44.33
2022-08-30T13:40:21.202Z,42.72
2022-08-30T13:42:47.927Z,44.45
2022-08-30T13:48:06.445Z,44.73
2022-08-30T13:50:33.052Z,44.74
2022-08-30T13:52:59.397Z,45.09
2022-08-30T13:55:26.473Z,45.34
2022-08-30T13:57:55.057Z,45.33
2022-08-30T14:00:23.474Z,44.53
2022-08-30T14:02:54.474Z,44.39
2022-08-30T14:05:48.194Z,45.04
2022-08-30T14:11:05.038Z,44.17
2022-08-30T14:13:31.455Z,45.77
2022-08-30T14:18:47.146Z,45.61
2022-08-30T14:21:13.712Z,45.47
2022-08-30T14:23:40.061Z,44.80
2022-08-30T14:26:17.192Z,45.71
2022-08-30T14:28:44.766Z,45.25
2022-08-30T14:31:11.955Z,45.85
2022-08-30T14:33:39.980Z,46.30
2022-08-30T14:36:12.493Z,44.56
2022-08-30T14:38:42.634Z,46.34
2022-08-30T14:41:10.687Z,47.82
2022-08-30T14:43:38.691Z,44.79
2022-08-30T14:46:05.590Z,45.17
2022-08-30T14:48:32.031Z,43.35
2022-08-30T14:50:58.386Z,44.16
2022-08-30T14:53:24.996Z,44.09
2022-08-30T14:55:51.330Z,45.30
2022-08-30T14:58:18.000Z,43.74
2022-08-30T15:00:52.349Z,44.72
2022-08-30T15:03:18.804Z,45.39
2022-08-30T15:05:50.370Z,46.41
2022-08-30T15:08:19.546Z,46.64
2022-08-30T15:10:47.309Z,45.48
2022-08-30T15:13:13.654Z,45.19
2022-08-30T15:15:42.047Z,46.56
2022-08-30T15:18:08.944Z,47.30
2022-08-30T15:20:35.531Z,48.57
2022-08-30T15:23:02.104Z,46.59
2022-08-30T15:25:28.463Z,47.04
2022-08-30T15:27:54.800Z,47.42
2022-08-30T15:30:22.080Z,47.49
2022-08-30T15:32:48.595Z,47.19
2022-08-30T15:35:14.990Z,48.44
2022-08-30T15:37:41.345Z,47.41
2022-08-30T15:40:09.681Z,48.00
2022-08-30T15:42:36.311Z,47.91
2022-08-30T15:45:02.862Z,48.57
2022-08-30T15:47:31.452Z,47.57
2022-08-30T15:50:01.924Z,46.76
2022-08-30T15:52:29.976Z,47.37
2022-08-30T15:54:57.451Z,47.79
2022-08-30T15:57:24.514Z,48.72
2022-08-30T15:59:51.565Z,48.88
2022-08-30T16:02:18.019Z,47.73
2022-08-30T16:04:44.620Z,48.56
2022-08-30T16:07:13.485Z,47.76
2022-08-30T16:09:40.508Z,50.33
2022-08-30T16:12:09.784Z,49.69
2022-08-30T16:14:36.677Z,48.06
2022-08-30T16:17:03.762Z,49.91
2022-08-30T16:19:31.797Z,48.70
2022-08-30T16:21:58.516Z,48.72
2022-08-30T16:24:25.848Z,48.63
2022-08-30T16:26:52.715Z,50.41
2022-08-30T16:29:19.243Z,49.74
2022-08-30T16:31:47.456Z,51.92
2022-08-30T16:34:16.463Z,49.19
2022-08-30T16:36:43.394Z,48.25
2022-08-30T16:39:12.602Z,49.39
2022-08-30T16:41:39.520Z,48.47
2022-08-30T16:44:06.535Z,49.33
2022-08-30T16:46:35.991Z,48.95
2022-08-30T16:49:02.852Z,49.88
2022-08-30T16:51:31.454Z,50.97
2022-08-30T16:54:00.442Z,51.59
2022-08-30T16:56:29.733Z,49.89
2022-08-30T16:59:01.805Z,50.48
2022-08-30T17:01:34.752Z,52.81
2022-08-30T17:04:02.286Z,51.31
2022-08-30T17:06:28.768Z,50.36
2022-08-30T17:08:56.242Z,50.15
2022-08-30T17:11:23.438Z,53.08
2022-08-30T17:13:49.790Z,53.60
2022-08-30T17:16:17.701Z,53.43
2022-08-30T17:18:49.222Z,51.51
2022-08-30T17:21:15.617Z,52.38
2022-08-30T17:23:41.967Z,54.32
2022-08-30T17:26:11.348Z,55.22
2022-08-30T17:28:39.640Z,55.90
2022-08-30T17:31:06.056Z,54.03
2022-08-30T17:33:32.535Z,53.47
2022-08-30T17:35:59.087Z,54.13
2022-08-30T17:38:26.411Z,54.44
2022-08-30T17:40:52.838Z,54.32
2022-08-30T17:43:19.201Z,55.44
2022-08-30T17:45:45.550Z,56.72
2022-08-30T17:48:11.909Z,55.52
2022-08-30T17:50:38.332Z,57.90
2022-08-30T17:53:04.799Z,56.24
2022-08-30T17:55:31.813Z,57.24
2022-08-30T17:58:00.535Z,58.88
2022-08-30T18:00:27.384Z,58.70
2022-08-30T18:02:53.839Z,59.11
2022-08-30T18:05:24.615Z,60.72
2022-08-30T18:07:51.806Z,60.59
2022-08-30T18:10:18.183Z,61.87
2022-08-30T18:12:44.598Z,61.05
2022-08-30T18:15:15.925Z,60.03
2022-08-30T18:17:42.965Z,59.59
2022-08-30T18:20:09.803Z,59.44
2022-08-30T18:22:37.707Z,61.27
2022-08-30T18:25:04.786Z,61.26
2022-08-30T18:27:31.178Z,62.63
2022-08-30T18:29:57.615Z,61.42
2022-08-30T18:32:35.932Z,61.36
2022-08-30T18:35:02.717Z,61.38
2022-08-30T18:37:32.086Z,61.77
2022-08-30T18:39:58.688Z,63.12
2022-08-30T18:42:27.447Z,63.57
2022-08-30T18:44:53.816Z,64.04
2022-08-30T18:47:32.129Z,64.19
2022-08-30T18:49:58.647Z,64.27
2022-08-30T18:52:27.802Z,63.80
2022-08-30T18:54:54.191Z,64.52
2022-08-30T18:57:22.502Z,65.01
2022-08-30T18:59:49.472Z,66.01
2022-08-30T19:02:17.518Z,66.11
2022-08-30T19:04:45.335Z,66.78
2022-08-30T19:07:14.738Z,68.41
2022-08-30T19:09:43.015Z,68.22
2022-08-30T19:12:11.483Z,68.09
2022-08-30T19:14:38.318Z,67.73
2022-08-30T19:17:07.008Z,67.83
2022-08-30T19:19:34.889Z,68.22
2022-08-30T19:22:04.172Z,69.07
2022-08-30T19:24:30.531Z,69.69
2022-08-30T19:26:58.738Z,69.76
2022-08-30T19:29:25.275Z,69.53
2022-08-30T19:31:52.651Z,70.03
2022-08-30T19:34:19.138Z,69.52
2022-08-30T19:36:45.474Z,69.34
2022-08-30T19:39:12.622Z,68.74
2022-08-30T19:41:38.990Z,68.78
2022-08-30T19:44:06.944Z,69.09
2022-08-30T19:46:33.535Z,69.24
2022-08-30T19:49:04.049Z,68.94
2022-08-30T19:51:30.783Z,69.58
2022-08-30T19:53:58.867Z,68.49
2022-08-30T19:56:26.129Z,68.30
2022-08-30T19:58:52.587Z,68.23
2022-08-30T20:01:32.749Z,68.33
2022-08-30T20:04:03.083Z,68.01
2022-08-30T20:06:30.227Z,68.24
2022-08-30T20:08:58.081Z,69.14
2022-08-30T20:11:25.715Z,69.34
2022-08-30T20:13:52.066Z,69.56
2022-08-30T20:16:18.667Z,70.06
2022-08-30T20:18:45.072Z,70.00
2022-08-30T20:21:14.254Z,70.37
2022-08-30T20:23:42.110Z,70.76
2022-08-30T20:26:09.859Z,70.96
2022-08-30T20:28:37.259Z,71.43
2022-08-30T20:31:05.768Z,71.27
2022-08-30T20:33:37.447Z,72.45
2022-08-30T20:36:06.311Z,71.58
2022-08-30T20:38:33.124Z,72.04
2022-08-30T20:41:01.048Z,72.14
2022-08-30T20:43:30.170Z,72.67
2022-08-30T20:45:56.806Z,73.00
2022-08-30T20:48:28.479Z,72.98
2022-08-30T20:50:54.839Z,73.11
2022-08-30T20:53:21.203Z,73.38
2022-08-30T20:55:47.842Z,73.78
2022-08-30T20:58:15.059Z,73.82
2022-08-30T21:00:45.936Z,73.18
2022-08-30T21:03:25.702Z,74.17
2022-08-30T21:05:53.919Z,73.61
2022-08-30T21:08:20.392Z,74.41
2022-08-30T21:10:47.783Z,73.83
2022-08-30T21:13:14.173Z,74.18
2022-08-30T21:15:45.585Z,74.46
2022-08-30T21:18:15.088Z,74.74
2022-08-30T21:20:41.739Z,74.75
2022-08-30T21:23:08.635Z,74.96
2022-08-30T21:25:38.234Z,74.94
2022-08-30T21:28:04.588Z,75.63
2022-08-30T21:30:31.020Z,75.37
2022-08-30T21:33:00.125Z,74.71
2022-08-30T21:35:45.760Z,75.08
2022-08-30T21:38:12.094Z,75.19
2022-08-30T21:40:38.516Z,75.23
2022-08-30T21:43:06.180Z,75.12
2022-08-30T21:45:36.953Z,75.01
2022-08-30T21:48:03.911Z,75.30
2022-08-30T21:50:30.267Z,75.36
2022-08-30T21:52:56.658Z,75.65
2022-08-30T21:55:22.991Z,75.51
2022-08-30T21:57:49.542Z,76.03
2022-08-30T22:00:20.229Z,75.87
2022-08-30T22:02:49.194Z,75.32
2022-08-30T22:05:20.139Z,75.59
2022-08-30T22:07:46.502Z,75.88
2022-08-30T22:10:13.347Z,75.90
2022-08-30T22:12:39.753Z,75.80
2022-08-30T22:15:09.084Z,76.35
2022-08-30T22:17:35.487Z,76.05
2022-08-30T22:20:01.961Z,76.07
2022-08-30T22:22:28.332Z,75.74
2022-08-30T22:24:54.674Z,76.14
2022-08-30T22:27:21.340Z,76.34
2022-08-30T22:29:47.727Z,76.07
2022-08-30T22:32:14.188Z,76.49
2022-08-30T22:34:40.551Z,75.91
2022-08-30T22:37:07.850Z,76.31
2022-08-30T22:39:34.410Z,76.14
2022-08-30T22:42:00.812Z,76.94
2022-08-30T22:44:27.318Z,76.35
2022-08-30T22:46:53.742Z,76.15
2022-08-30T22:49:20.413Z,76.32
2022-08-30T22:51:46.827Z,76.25
2022-08-30T22:54:13.194Z,76.25
2022-08-30T22:56:40.256Z,76.66
2022-08-30T22:59:07.274Z,76.85
2022-08-30T23:01:37.254Z,76.87
2022-08-30T23:04:06.423Z,77.00
2022-08-30T23:06:33.947Z,76.79
2022-08-30T23:09:00.406Z,76.58
2022-08-30T23:11:27.399Z,76.43
2022-08-30T23:13:54.114Z,76.61
2022-08-30T23:16:21.398Z,76.70
2022-08-30T23:18:48.186Z,76.38
2022-08-30T23:21:21.916Z,76.49
2022-08-30T23:24:08.978Z,76.42
2022-08-30T23:26:54.827Z,77.14
2022-08-30T23:29:40.226Z,76.98
2022-08-30T23:32:25.364Z,76.48
2022-08-30T23:35:10.206Z,76.61
2022-08-30T23:37:55.395Z,76.91
2022-08-30T23:40:41.840Z,76.87
2022-08-30T23:43:28.533Z,76.95
2022-08-30T23:46:16.965Z,77.55
2022-08-30T23:49:08.400Z,77.63
2022-08-30T23:51:55.274Z,77.68
2022-08-30T23:54:40.753Z,77.90
2022-08-30T23:57:26.002Z,77.94
